Kezdőlap
METAR-TAF:

METAR-TAF

Repülőterek :

Lamoni Municipal Airport

Lamoni, Iowa, Amerikai Egyesült Államok

földrajzi szélesség: 40-37-50N, földrajzi hosszúság: 093-54-03W, magasság: 344 m

Jelenlegi meteorológiai megfigyelések

A jelentés 8 perccel ezelõtt készült, 18:22 UTC
Észak-északkeleti szél 12 kt széllökések: 23 kt
Hőmérséklet 8°C
Páratartalom 100%
Légköri nyomás 1018 hPa
Látótávolság: 4.0 km
Szakadozott felhőzet 800 lábon
Szakadozott felhőzet 1300 lábon
Borult 4400 lábon
esõ, Párásság

METAR: KLWD 181822Z AUTO 03012G23KT 2 1/2SM RA BR BKN008 BKN013 OVC044 08/08 A3005 RMK AO2 LTG DSNT E P0004 T00830078

Idő: 13:30 (18:30 UTC)


TAF: hiányzik

Meteorológiai megfigyelések és előrejelzések több, mint 4000 repülőtéren (METAR és TAF jelentéseket).

A térképen piros és sárga pontok jelzik az elérhető meteorológiai állomásokat.

Mozgassa az egeret a pont fölött, hogy megjelenjen az állomás neve.

Azután kattintson az időjárási megfigyelések és előrejelzések megtekintéséhez.

A térkép megváltoztatása: kattintson a fekete keresztel jelölt zöld gombra ráközelítéshez, a vonallal jelölt zöld gombra távolításhoz, vagy a zöld nyilakra a szomszédos térképek eléréséhez.


METAR-TAF: